Terminal Aerodrome Forecast
Issued by NWS

Home | Current Version | Previous Version | Text Only | Print | Product List | Glossary On
Versions: 1 2 3 4 5 6 7 8 9 10 11 12 13 14 15 16
145
FTUS41 KPBZ 091132
TAFAGC
TAF
KAGC 091132Z 0912/1012 21004KT 2SM -SN BR BKN010 OVC015
      TEMPO 0913/0916 1SM -SN BKN006
     FM091800 27005KT 3SM -SHSN OVC010
     FM100300 30008KT P6SM BKN015=

USA.gov is the U.S. government's official web portal to all federal, state and local government web resources and services.